sensor_id;sensor_type;location;lat;lon;timestamp;P1;durP1;ratioP1;P2;durP2;ratioP2
62543;SDS011;48597;49.030;1.822;2023-06-22T00:01:47;1.70;;;1.40;;
62543;SDS011;48597;49.030;1.822;2023-06-22T00:04:12;1.48;;;1.38;;
62543;SDS011;48597;49.030;1.822;2023-06-22T00:06:38;2.00;;;1.73;;
62543;SDS011;48597;49.030;1.822;2023-06-22T00:09:03;2.72;;;1.65;;
62543;SDS011;48597;49.030;1.822;2023-06-22T00:11:29;1.58;;;1.48;;
62543;SDS011;48597;49.030;1.822;2023-06-22T00:13:56;2.15;;;1.70;;
62543;SDS011;48597;49.030;1.822;2023-06-22T00:16:21;2.22;;;1.70;;
62543;SDS011;48597;49.030;1.822;2023-06-22T00:18:47;2.03;;;1.40;;
62543;SDS011;48597;49.030;1.822;2023-06-22T00:21:13;1.80;;;1.60;;
62543;SDS011;48597;49.030;1.822;2023-06-22T00:23:39;2.20;;;1.60;;
62543;SDS011;48597;49.030;1.822;2023-06-22T00:26:04;1.70;;;1.60;;
62543;SDS011;48597;49.030;1.822;2023-06-22T00:28:29;2.13;;;1.92;;
62543;SDS011;48597;49.030;1.822;2023-06-22T00:30:55;1.80;;;1.60;;
62543;SDS011;48597;49.030;1.822;2023-06-22T00:33:20;1.60;;;1.40;;
62543;SDS011;48597;49.030;1.822;2023-06-22T00:35:46;1.50;;;1.40;;
62543;SDS011;48597;49.030;1.822;2023-06-22T00:38:11;1.58;;;1.48;;
62543;SDS011;48597;49.030;1.822;2023-06-22T00:40:37;1.58;;;1.48;;
62543;SDS011;48597;49.030;1.822;2023-06-22T00:43:02;1.70;;;1.50;;
62543;SDS011;48597;49.030;1.822;2023-06-22T00:45:29;1.70;;;1.30;;
62543;SDS011;48597;49.030;1.822;2023-06-22T00:47:58;2.35;;;1.73;;
62543;SDS011;48597;49.030;1.822;2023-06-22T00:50:25;1.70;;;1.60;;
62543;SDS011;48597;49.030;1.822;2023-06-22T00:52:53;2.10;;;1.90;;
62543;SDS011;48597;49.030;1.822;2023-06-22T00:55:21;1.88;;;1.50;;
62543;SDS011;48597;49.030;1.822;2023-06-22T00:57:48;1.92;;;1.73;;
62543;SDS011;48597;49.030;1.822;2023-06-22T01:00:14;2.50;;;1.60;;
62543;SDS011;48597;49.030;1.822;2023-06-22T01:05:11;1.65;;;1.48;;
62543;SDS011;48597;49.030;1.822;2023-06-22T01:13:31;1.88;;;1.73;;
62543;SDS011;48597;49.030;1.822;2023-06-22T01:18:34;1.90;;;1.50;;
62543;SDS011;48597;49.030;1.822;2023-06-22T01:21:04;1.98;;;1.52;;
62543;SDS011;48597;49.030;1.822;2023-06-22T01:28:53;4.60;;;1.60;;
62543;SDS011;48597;49.030;1.822;2023-06-22T01:31:22;2.05;;;1.55;;
62543;SDS011;48597;49.030;1.822;2023-06-22T01:33:50;1.90;;;1.70;;
62543;SDS011;48597;49.030;1.822;2023-06-22T01:36:18;1.70;;;1.60;;
62543;SDS011;48597;49.030;1.822;2023-06-22T01:38:45;1.75;;;1.60;;
62543;SDS011;48597;49.030;1.822;2023-06-22T01:41:12;2.22;;;1.60;;
62543;SDS011;48597;49.030;1.822;2023-06-22T01:43:38;1.70;;;1.58;;
62543;SDS011;48597;49.030;1.822;2023-06-22T01:46:04;1.65;;;1.55;;
62543;SDS011;48597;49.030;1.822;2023-06-22T01:48:30;1.65;;;1.55;;
62543;SDS011;48597;49.030;1.822;2023-06-22T01:50:56;1.60;;;1.30;;
62543;SDS011;48597;49.030;1.822;2023-06-22T01:53:22;2.55;;;1.58;;
62543;SDS011;48597;49.030;1.822;2023-06-22T01:55:48;1.67;;;1.58;;
62543;SDS011;48597;49.030;1.822;2023-06-22T01:58:14;2.10;;;1.35;;
62543;SDS011;48597;49.030;1.822;2023-06-22T02:00:40;2.00;;;1.58;;
62543;SDS011;48597;49.030;1.822;2023-06-22T02:03:26;1.87;;;1.50;;
62543;SDS011;48597;49.030;1.822;2023-06-22T02:05:58;1.55;;;1.45;;
62543;SDS011;48597;49.030;1.822;2023-06-22T02:08:30;2.35;;;1.58;;
62543;SDS011;48597;49.030;1.822;2023-06-22T02:10:57;2.22;;;1.75;;
62543;SDS011;48597;49.030;1.822;2023-06-22T02:13:24;2.08;;;1.60;;
62543;SDS011;48597;49.030;1.822;2023-06-22T02:15:50;1.80;;;1.70;;
62543;SDS011;48597;49.030;1.822;2023-06-22T02:18:16;2.30;;;1.52;;
62543;SDS011;48597;49.030;1.822;2023-06-22T02:20:42;1.40;;;1.30;;
62543;SDS011;48597;49.030;1.822;2023-06-22T02:23:08;1.58;;;1.48;;
62543;SDS011;48597;49.030;1.822;2023-06-22T02:25:33;1.98;;;1.77;;
62543;SDS011;48597;49.030;1.822;2023-06-22T02:27:59;1.90;;;1.50;;
62543;SDS011;48597;49.030;1.822;2023-06-22T02:30:26;1.70;;;1.50;;
62543;SDS011;48597;49.030;1.822;2023-06-22T02:32:51;1.77;;;1.63;;
62543;SDS011;48597;49.030;1.822;2023-06-22T02:35:24;1.60;;;1.50;;
62543;SDS011;48597;49.030;1.822;2023-06-22T02:38:00;2.15;;;1.88;;
62543;SDS011;48597;49.030;1.822;2023-06-22T02:40:27;1.80;;;1.40;;
62543;SDS011;48597;49.030;1.822;2023-06-22T02:42:54;2.00;;;1.63;;
62543;SDS011;48597;49.030;1.822;2023-06-22T02:45:19;2.45;;;1.60;;
62543;SDS011;48597;49.030;1.822;2023-06-22T02:47:45;2.13;;;1.50;;
62543;SDS011;48597;49.030;1.822;2023-06-22T02:50:12;1.70;;;1.30;;
62543;SDS011;48597;49.030;1.822;2023-06-22T02:52:38;1.90;;;1.70;;
62543;SDS011;48597;49.030;1.822;2023-06-22T02:55:04;2.10;;;1.73;;
62543;SDS011;48597;49.030;1.822;2023-06-22T02:57:30;2.42;;;1.58;;
62543;SDS011;48597;49.030;1.822;2023-06-22T02:59:56;1.73;;;1.50;;
62543;SDS011;48597;49.030;1.822;2023-06-22T03:02:21;1.98;;;1.42;;
62543;SDS011;48597;49.030;1.822;2023-06-22T03:04:47;1.98;;;1.77;;
62543;SDS011;48597;49.030;1.822;2023-06-22T03:07:18;2.15;;;1.48;;
62543;SDS011;48597;49.030;1.822;2023-06-22T03:09:46;1.63;;;1.50;;
62543;SDS011;48597;49.030;1.822;2023-06-22T03:12:12;1.73;;;1.33;;
62543;SDS011;48597;49.030;1.822;2023-06-22T03:14:37;1.90;;;1.50;;
62543;SDS011;48597;49.030;1.822;2023-06-22T03:17:04;2.25;;;1.63;;
62543;SDS011;48597;49.030;1.822;2023-06-22T03:19:30;1.92;;;1.70;;
62543;SDS011;48597;49.030;1.822;2023-06-22T03:21:57;2.92;;;1.55;;
62543;SDS011;48597;49.030;1.822;2023-06-22T03:24:22;2.85;;;1.75;;
62543;SDS011;48597;49.030;1.822;2023-06-22T03:26:48;1.70;;;1.60;;
62543;SDS011;48597;49.030;1.822;2023-06-22T03:29:13;2.13;;;1.65;;
62543;SDS011;48597;49.030;1.822;2023-06-22T03:31:39;1.92;;;1.60;;
62543;SDS011;48597;49.030;1.822;2023-06-22T03:34:04;2.00;;;1.55;;
62543;SDS011;48597;49.030;1.822;2023-06-22T03:36:29;2.40;;;1.98;;
62543;SDS011;48597;49.030;1.822;2023-06-22T03:38:55;2.13;;;1.70;;
62543;SDS011;48597;49.030;1.822;2023-06-22T03:41:20;2.30;;;1.77;;
62543;SDS011;48597;49.030;1.822;2023-06-22T03:43:46;2.03;;;1.60;;
62543;SDS011;48597;49.030;1.822;2023-06-22T03:46:11;2.72;;;1.73;;
62543;SDS011;48597;49.030;1.822;2023-06-22T03:48:37;2.15;;;1.55;;
62543;SDS011;48597;49.030;1.822;2023-06-22T03:51:03;1.73;;;1.63;;
62543;SDS011;48597;49.030;1.822;2023-06-22T03:53:28;2.53;;;1.70;;
62543;SDS011;48597;49.030;1.822;2023-06-22T03:55:55;1.85;;;1.73;;
62543;SDS011;48597;49.030;1.822;2023-06-22T03:58:21;1.85;;;1.58;;
62543;SDS011;48597;49.030;1.822;2023-06-22T04:00:47;1.90;;;1.50;;
62543;SDS011;48597;49.030;1.822;2023-06-22T04:03:13;2.63;;;1.58;;
62543;SDS011;48597;49.030;1.822;2023-06-22T04:05:43;2.25;;;1.70;;
62543;SDS011;48597;49.030;1.822;2023-06-22T04:08:11;1.98;;;1.70;;
62543;SDS011;48597;49.030;1.822;2023-06-22T04:10:40;2.00;;;1.80;;
62543;SDS011;48597;49.030;1.822;2023-06-22T04:13:05;2.47;;;1.80;;
62543;SDS011;48597;49.030;1.822;2023-06-22T04:15:30;1.67;;;1.58;;
62543;SDS011;48597;49.030;1.822;2023-06-22T04:17:56;1.98;;;1.60;;
62543;SDS011;48597;49.030;1.822;2023-06-22T04:20:22;2.20;;;1.80;;
62543;SDS011;48597;49.030;1.822;2023-06-22T04:22:47;2.95;;;1.70;;
62543;SDS011;48597;49.030;1.822;2023-06-22T04:25:12;2.00;;;1.55;;
62543;SDS011;48597;49.030;1.822;2023-06-22T04:27:38;3.00;;;1.80;;
62543;SDS011;48597;49.030;1.822;2023-06-22T04:30:05;2.13;;;1.80;;
62543;SDS011;48597;49.030;1.822;2023-06-22T04:32:32;2.33;;;1.80;;
62543;SDS011;48597;49.030;1.822;2023-06-22T04:34:57;2.13;;;1.70;;
62543;SDS011;48597;49.030;1.822;2023-06-22T04:37:25;2.90;;;1.70;;
62543;SDS011;48597;49.030;1.822;2023-06-22T04:39:50;2.03;;;1.60;;
62543;SDS011;48597;49.030;1.822;2023-06-22T04:42:16;2.55;;;1.75;;
62543;SDS011;48597;49.030;1.822;2023-06-22T04:44:41;2.22;;;1.80;;
62543;SDS011;48597;49.030;1.822;2023-06-22T04:47:07;1.90;;;1.70;;
62543;SDS011;48597;49.030;1.822;2023-06-22T04:49:33;1.70;;;1.60;;
62543;SDS011;48597;49.030;1.822;2023-06-22T04:52:02;2.00;;;1.77;;
62543;SDS011;48597;49.030;1.822;2023-06-22T04:54:30;2.63;;;1.70;;
62543;SDS011;48597;49.030;1.822;2023-06-22T04:56:58;1.77;;;1.48;;
62543;SDS011;48597;49.030;1.822;2023-06-22T04:59:27;2.15;;;1.90;;
62543;SDS011;48597;49.030;1.822;2023-06-22T05:01:57;2.13;;;1.92;;
62543;SDS011;48597;49.030;1.822;2023-06-22T05:04:24;2.45;;;1.80;;
62543;SDS011;48597;49.030;1.822;2023-06-22T05:06:52;3.40;;;2.00;;
62543;SDS011;48597;49.030;1.822;2023-06-22T05:09:17;2.63;;;1.70;;
62543;SDS011;48597;49.030;1.822;2023-06-22T05:11:43;2.45;;;1.80;;
62543;SDS011;48597;49.030;1.822;2023-06-22T05:14:09;3.25;;;1.80;;
62543;SDS011;48597;49.030;1.822;2023-06-22T05:16:35;2.17;;;1.65;;
62543;SDS011;48597;49.030;1.822;2023-06-22T05:19:01;2.92;;;1.90;;
62543;SDS011;48597;49.030;1.822;2023-06-22T05:21:28;2.47;;;1.80;;
62543;SDS011;48597;49.030;1.822;2023-06-22T05:23:55;2.08;;;1.60;;
62543;SDS011;48597;49.030;1.822;2023-06-22T05:26:24;1.95;;;1.75;;
62543;SDS011;48597;49.030;1.822;2023-06-22T05:28:50;2.75;;;1.73;;
62543;SDS011;48597;49.030;1.822;2023-06-22T05:31:16;2.35;;;1.65;;
62543;SDS011;48597;49.030;1.822;2023-06-22T05:33:42;2.50;;;1.70;;
62543;SDS011;48597;49.030;1.822;2023-06-22T05:36:09;2.03;;;1.65;;
62543;SDS011;48597;49.030;1.822;2023-06-22T05:38:35;2.03;;;1.88;;
62543;SDS011;48597;49.030;1.822;2023-06-22T05:41:01;1.95;;;1.75;;
62543;SDS011;48597;49.030;1.822;2023-06-22T05:43:27;1.77;;;1.67;;
62543;SDS011;48597;49.030;1.822;2023-06-22T05:45:52;2.70;;;1.65;;
62543;SDS011;48597;49.030;1.822;2023-06-22T05:48:18;2.00;;;1.80;;
62543;SDS011;48597;49.030;1.822;2023-06-22T05:50:43;2.15;;;1.80;;
62543;SDS011;48597;49.030;1.822;2023-06-22T05:53:08;2.75;;;1.83;;
62543;SDS011;48597;49.030;1.822;2023-06-22T05:55:34;3.13;;;1.80;;
62543;SDS011;48597;49.030;1.822;2023-06-22T05:57:59;2.00;;;1.80;;
62543;SDS011;48597;49.030;1.822;2023-06-22T06:00:25;2.35;;;1.85;;
62543;SDS011;48597;49.030;1.822;2023-06-22T06:02:50;2.05;;;1.80;;
62543;SDS011;48597;49.030;1.822;2023-06-22T06:05:15;2.28;;;2.08;;
62543;SDS011;48597;49.030;1.822;2023-06-22T06:07:41;2.38;;;1.95;;
62543;SDS011;48597;49.030;1.822;2023-06-22T06:10:07;3.05;;;2.20;;
62543;SDS011;48597;49.030;1.822;2023-06-22T06:12:33;2.97;;;2.13;;
62543;SDS011;48597;49.030;1.822;2023-06-22T06:14:58;3.25;;;1.85;;
62543;SDS011;48597;49.030;1.822;2023-06-22T06:17:24;2.35;;;1.98;;
62543;SDS011;48597;49.030;1.822;2023-06-22T06:19:49;3.42;;;1.73;;
62543;SDS011;48597;49.030;1.822;2023-06-22T06:22:14;2.20;;;1.80;;
62543;SDS011;48597;49.030;1.822;2023-06-22T06:24:40;2.35;;;2.08;;
62543;SDS011;48597;49.030;1.822;2023-06-22T06:27:05;2.13;;;1.92;;
62543;SDS011;48597;49.030;1.822;2023-06-22T06:29:31;2.65;;;1.85;;
62543;SDS011;48597;49.030;1.822;2023-06-22T06:31:57;2.13;;;1.90;;
62543;SDS011;48597;49.030;1.822;2023-06-22T06:34:22;2.22;;;1.75;;
62543;SDS011;48597;49.030;1.822;2023-06-22T06:36:47;2.13;;;1.73;;
62543;SDS011;48597;49.030;1.822;2023-06-22T06:39:13;2.90;;;1.80;;
62543;SDS011;48597;49.030;1.822;2023-06-22T06:41:38;2.47;;;2.03;;
62543;SDS011;48597;49.030;1.822;2023-06-22T06:44:04;2.20;;;2.00;;
62543;SDS011;48597;49.030;1.822;2023-06-22T06:46:29;1.98;;;1.77;;
62543;SDS011;48597;49.030;1.822;2023-06-22T06:48:54;2.28;;;1.80;;
62543;SDS011;48597;49.030;1.822;2023-06-22T06:51:20;2.45;;;1.90;;
62543;SDS011;48597;49.030;1.822;2023-06-22T06:53:45;3.20;;;1.90;;
62543;SDS011;48597;49.030;1.822;2023-06-22T06:56:10;3.08;;;1.90;;
62543;SDS011;48597;49.030;1.822;2023-06-22T06:58:36;4.20;;;1.92;;
62543;SDS011;48597;49.030;1.822;2023-06-22T07:01:02;2.17;;;1.95;;
62543;SDS011;48597;49.030;1.822;2023-06-22T07:03:28;2.55;;;1.92;;
62543;SDS011;48597;49.030;1.822;2023-06-22T07:05:53;2.25;;;1.90;;
62543;SDS011;48597;49.030;1.822;2023-06-22T07:08:19;2.20;;;1.98;;
62543;SDS011;48597;49.030;1.822;2023-06-22T07:10:44;2.03;;;1.80;;
62543;SDS011;48597;49.030;1.822;2023-06-22T07:13:09;2.92;;;1.90;;
62543;SDS011;48597;49.030;1.822;2023-06-22T07:15:35;2.58;;;1.90;;
62543;SDS011;48597;49.030;1.822;2023-06-22T07:18:00;2.35;;;1.90;;
62543;SDS011;48597;49.030;1.822;2023-06-22T07:20:26;2.42;;;1.92;;
62543;SDS011;48597;49.030;1.822;2023-06-22T07:22:51;2.55;;;1.90;;
62543;SDS011;48597;49.030;1.822;2023-06-22T07:25:17;2.60;;;2.13;;
62543;SDS011;48597;49.030;1.822;2023-06-22T07:27:44;2.30;;;2.10;;
62543;SDS011;48597;49.030;1.822;2023-06-22T07:30:11;3.45;;;1.98;;
62543;SDS011;48597;49.030;1.822;2023-06-22T07:32:37;2.95;;;2.00;;
62543;SDS011;48597;49.030;1.822;2023-06-22T07:35:02;2.40;;;1.85;;
62543;SDS011;48597;49.030;1.822;2023-06-22T07:37:29;3.15;;;2.30;;
62543;SDS011;48597;49.030;1.822;2023-06-22T07:39:54;2.53;;;2.22;;
62543;SDS011;48597;49.030;1.822;2023-06-22T07:42:24;2.50;;;2.10;;
62543;SDS011;48597;49.030;1.822;2023-06-22T07:44:53;2.75;;;1.88;;
62543;SDS011;48597;49.030;1.822;2023-06-22T07:47:19;2.60;;;1.92;;
62543;SDS011;48597;49.030;1.822;2023-06-22T07:49:45;3.10;;;2.20;;
62543;SDS011;48597;49.030;1.822;2023-06-22T07:52:11;2.70;;;1.83;;
62543;SDS011;48597;49.030;1.822;2023-06-22T07:54:36;2.70;;;2.10;;
62543;SDS011;48597;49.030;1.822;2023-06-22T07:57:02;3.50;;;2.10;;
62543;SDS011;48597;49.030;1.822;2023-06-22T07:59:28;2.28;;;1.75;;
62543;SDS011;48597;49.030;1.822;2023-06-22T08:01:54;2.47;;;1.95;;
62543;SDS011;48597;49.030;1.822;2023-06-22T08:04:20;2.75;;;2.00;;
62543;SDS011;48597;49.030;1.822;2023-06-22T08:06:45;2.28;;;1.70;;
62543;SDS011;48597;49.030;1.822;2023-06-22T08:09:11;2.85;;;1.88;;
62543;SDS011;48597;49.030;1.822;2023-06-22T08:11:37;2.95;;;2.03;;
62543;SDS011;48597;49.030;1.822;2023-06-22T08:14:02;2.40;;;1.90;;
62543;SDS011;48597;49.030;1.822;2023-06-22T08:16:28;2.10;;;1.90;;
62543;SDS011;48597;49.030;1.822;2023-06-22T08:18:53;2.30;;;1.80;;
62543;SDS011;48597;49.030;1.822;2023-06-22T08:21:18;2.47;;;1.83;;
62543;SDS011;48597;49.030;1.822;2023-06-22T08:23:44;2.80;;;2.10;;
62543;SDS011;48597;49.030;1.822;2023-06-22T08:26:09;2.28;;;1.73;;
62543;SDS011;48597;49.030;1.822;2023-06-22T08:28:34;2.47;;;2.03;;
62543;SDS011;48597;49.030;1.822;2023-06-22T08:31:00;2.75;;;2.20;;
62543;SDS011;48597;49.030;1.822;2023-06-22T08:33:26;3.03;;;2.00;;
62543;SDS011;48597;49.030;1.822;2023-06-22T08:35:54;3.08;;;2.10;;
62543;SDS011;48597;49.030;1.822;2023-06-22T08:38:20;2.85;;;2.20;;
62543;SDS011;48597;49.030;1.822;2023-06-22T08:40:45;4.05;;;2.50;;
62543;SDS011;48597;49.030;1.822;2023-06-22T08:43:11;3.80;;;2.17;;
62543;SDS011;48597;49.030;1.822;2023-06-22T08:45:36;2.88;;;2.08;;
62543;SDS011;48597;49.030;1.822;2023-06-22T08:48:02;2.65;;;2.15;;
62543;SDS011;48597;49.030;1.822;2023-06-22T08:50:27;2.83;;;2.17;;
62543;SDS011;48597;49.030;1.822;2023-06-22T08:52:52;2.47;;;2.03;;
62543;SDS011;48597;49.030;1.822;2023-06-22T08:55:18;3.47;;;2.35;;
62543;SDS011;48597;49.030;1.822;2023-06-22T08:57:43;2.70;;;1.98;;
62543;SDS011;48597;49.030;1.822;2023-06-22T09:00:09;3.38;;;2.28;;
62543;SDS011;48597;49.030;1.822;2023-06-22T09:02:45;2.50;;;2.00;;
62543;SDS011;48597;49.030;1.822;2023-06-22T09:05:11;3.60;;;1.98;;
62543;SDS011;48597;49.030;1.822;2023-06-22T09:07:37;3.20;;;2.25;;
62543;SDS011;48597;49.030;1.822;2023-06-22T09:10:03;2.78;;;2.30;;
62543;SDS011;48597;49.030;1.822;2023-06-22T09:12:31;2.40;;;1.95;;
62543;SDS011;48597;49.030;1.822;2023-06-22T09:14:58;2.90;;;2.15;;
62543;SDS011;48597;49.030;1.822;2023-06-22T09:17:28;2.67;;;2.20;;
62543;SDS011;48597;49.030;1.822;2023-06-22T09:19:53;2.50;;;2.15;;
62543;SDS011;48597;49.030;1.822;2023-06-22T09:22:19;2.83;;;2.05;;
62543;SDS011;48597;49.030;1.822;2023-06-22T09:24:44;2.47;;;2.10;;
62543;SDS011;48597;49.030;1.822;2023-06-22T09:27:10;2.78;;;1.90;;
62543;SDS011;48597;49.030;1.822;2023-06-22T09:29:35;2.20;;;2.00;;
62543;SDS011;48597;49.030;1.822;2023-06-22T09:32:01;2.58;;;2.00;;
62543;SDS011;48597;49.030;1.822;2023-06-22T09:34:26;2.22;;;1.85;;
62543;SDS011;48597;49.030;1.822;2023-06-22T09:36:52;2.15;;;1.92;;
62543;SDS011;48597;49.030;1.822;2023-06-22T09:39:17;2.35;;;2.10;;
62543;SDS011;48597;49.030;1.822;2023-06-22T09:41:43;2.50;;;2.00;;
62543;SDS011;48597;49.030;1.822;2023-06-22T09:44:09;2.08;;;1.88;;
62543;SDS011;48597;49.030;1.822;2023-06-22T09:46:34;3.40;;;1.92;;
62543;SDS011;48597;49.030;1.822;2023-06-22T09:48:59;2.38;;;1.90;;
62543;SDS011;48597;49.030;1.822;2023-06-22T09:51:25;2.75;;;2.08;;
62543;SDS011;48597;49.030;1.822;2023-06-22T09:53:50;2.75;;;2.15;;
62543;SDS011;48597;49.030;1.822;2023-06-22T09:56:17;2.30;;;1.90;;
62543;SDS011;48597;49.030;1.822;2023-06-22T09:58:43;3.05;;;2.10;;
62543;SDS011;48597;49.030;1.822;2023-06-22T10:01:09;2.38;;;1.85;;
62543;SDS011;48597;49.030;1.822;2023-06-22T10:03:35;2.20;;;2.00;;
62543;SDS011;48597;49.030;1.822;2023-06-22T10:06:01;2.55;;;2.00;;
62543;SDS011;48597;49.030;1.822;2023-06-22T10:08:27;2.15;;;1.85;;
62543;SDS011;48597;49.030;1.822;2023-06-22T10:10:52;2.80;;;1.95;;
62543;SDS011;48597;49.030;1.822;2023-06-22T10:13:18;2.30;;;2.00;;
62543;SDS011;48597;49.030;1.822;2023-06-22T10:15:44;2.70;;;2.15;;
62543;SDS011;48597;49.030;1.822;2023-06-22T10:18:14;1.83;;;1.60;;
62543;SDS011;48597;49.030;1.822;2023-06-22T10:20:41;3.05;;;2.03;;
62543;SDS011;48597;49.030;1.822;2023-06-22T10:23:06;2.75;;;2.03;;
62543;SDS011;48597;49.030;1.822;2023-06-22T10:25:31;2.38;;;1.73;;
62543;SDS011;48597;49.030;1.822;2023-06-22T10:27:57;2.28;;;2.08;;
62543;SDS011;48597;49.030;1.822;2023-06-22T10:30:22;3.00;;;2.10;;
62543;SDS011;48597;49.030;1.822;2023-06-22T10:32:48;2.53;;;1.90;;
62543;SDS011;48597;49.030;1.822;2023-06-22T10:35:13;2.53;;;1.85;;
62543;SDS011;48597;49.030;1.822;2023-06-22T10:37:41;2.42;;;2.00;;
62543;SDS011;48597;49.030;1.822;2023-06-22T10:40:10;4.10;;;1.90;;
62543;SDS011;48597;49.030;1.822;2023-06-22T10:42:39;2.57;;;2.20;;
62543;SDS011;48597;49.030;1.822;2023-06-22T10:45:05;2.75;;;2.30;;
62543;SDS011;48597;49.030;1.822;2023-06-22T10:47:31;2.08;;;1.88;;
62543;SDS011;48597;49.030;1.822;2023-06-22T10:49:57;2.40;;;1.80;;
62543;SDS011;48597;49.030;1.822;2023-06-22T10:52:22;2.85;;;2.10;;
62543;SDS011;48597;49.030;1.822;2023-06-22T10:54:47;3.13;;;2.10;;
62543;SDS011;48597;49.030;1.822;2023-06-22T10:57:13;2.10;;;1.90;;
62543;SDS011;48597;49.030;1.822;2023-06-22T10:59:38;3.15;;;2.00;;
62543;SDS011;48597;49.030;1.822;2023-06-22T11:02:04;2.25;;;1.80;;
62543;SDS011;48597;49.030;1.822;2023-06-22T11:04:30;2.13;;;1.92;;
62543;SDS011;48597;49.030;1.822;2023-06-22T11:06:55;2.15;;;1.95;;
62543;SDS011;48597;49.030;1.822;2023-06-22T11:09:21;2.85;;;2.08;;
62543;SDS011;48597;49.030;1.822;2023-06-22T11:11:47;2.25;;;2.05;;
62543;SDS011;48597;49.030;1.822;2023-06-22T11:14:13;2.22;;;2.00;;
62543;SDS011;48597;49.030;1.822;2023-06-22T11:16:38;1.80;;;1.70;;
62543;SDS011;48597;49.030;1.822;2023-06-22T11:19:04;2.97;;;1.88;;
62543;SDS011;48597;49.030;1.822;2023-06-22T11:21:30;2.17;;;1.80;;
62543;SDS011;48597;49.030;1.822;2023-06-22T11:23:56;2.03;;;1.70;;
62543;SDS011;48597;49.030;1.822;2023-06-22T11:26:22;2.50;;;1.88;;
62543;SDS011;48597;49.030;1.822;2023-06-22T11:28:47;1.90;;;1.70;;
62543;SDS011;48597;49.030;1.822;2023-06-22T11:31:12;2.65;;;2.25;;
62543;SDS011;48597;49.030;1.822;2023-06-22T11:33:39;2.35;;;1.85;;
62543;SDS011;48597;49.030;1.822;2023-06-22T11:36:05;2.03;;;1.70;;
62543;SDS011;48597;49.030;1.822;2023-06-22T11:38:30;2.10;;;1.60;;
62543;SDS011;48597;49.030;1.822;2023-06-22T11:40:57;2.42;;;1.90;;
62543;SDS011;48597;49.030;1.822;2023-06-22T11:43:23;2.00;;;1.60;;
62543;SDS011;48597;49.030;1.822;2023-06-22T11:45:49;2.45;;;1.80;;
62543;SDS011;48597;49.030;1.822;2023-06-22T11:48:15;2.28;;;1.77;;
62543;SDS011;48597;49.030;1.822;2023-06-22T11:50:41;2.28;;;2.00;;
62543;SDS011;48597;49.030;1.822;2023-06-22T11:53:06;1.70;;;1.60;;
62543;SDS011;48597;49.030;1.822;2023-06-22T11:55:31;2.22;;;1.85;;
62543;SDS011;48597;49.030;1.822;2023-06-22T11:57:57;2.30;;;1.67;;
62543;SDS011;48597;49.030;1.822;2023-06-22T12:00:28;4.60;;;1.98;;
62543;SDS011;48597;49.030;1.822;2023-06-22T12:02:54;2.67;;;2.03;;
62543;SDS011;48597;49.030;1.822;2023-06-22T12:05:21;2.30;;;1.90;;
62543;SDS011;48597;49.030;1.822;2023-06-22T12:07:47;2.17;;;1.90;;
62543;SDS011;48597;49.030;1.822;2023-06-22T12:10:13;2.67;;;1.85;;
62543;SDS011;48597;49.030;1.822;2023-06-22T12:12:39;2.08;;;1.77;;
62543;SDS011;48597;49.030;1.822;2023-06-22T12:15:04;6.45;;;2.05;;
62543;SDS011;48597;49.030;1.822;2023-06-22T12:17:30;2.65;;;1.80;;
62543;SDS011;48597;49.030;1.822;2023-06-22T12:19:56;4.20;;;2.00;;
62543;SDS011;48597;49.030;1.822;2023-06-22T12:22:21;3.97;;;1.83;;
62543;SDS011;48597;49.030;1.822;2023-06-22T12:24:46;4.63;;;1.90;;
62543;SDS011;48597;49.030;1.822;2023-06-22T12:27:12;7.72;;;2.00;;
62543;SDS011;48597;49.030;1.822;2023-06-22T12:29:37;5.03;;;1.80;;
62543;SDS011;48597;49.030;1.822;2023-06-22T12:32:03;3.63;;;1.67;;
62543;SDS011;48597;49.030;1.822;2023-06-22T12:34:29;3.17;;;1.73;;
62543;SDS011;48597;49.030;1.822;2023-06-22T12:36:54;5.50;;;2.05;;
62543;SDS011;48597;49.030;1.822;2023-06-22T12:39:19;2.08;;;1.70;;
62543;SDS011;48597;49.030;1.822;2023-06-22T12:41:45;4.05;;;2.10;;
62543;SDS011;48597;49.030;1.822;2023-06-22T12:44:10;4.00;;;1.60;;
62543;SDS011;48597;49.030;1.822;2023-06-22T12:46:36;5.35;;;1.90;;
62543;SDS011;48597;49.030;1.822;2023-06-22T12:49:03;4.10;;;1.90;;
62543;SDS011;48597;49.030;1.822;2023-06-22T12:51:30;4.60;;;1.73;;
62543;SDS011;48597;49.030;1.822;2023-06-22T12:53:55;3.50;;;1.73;;
62543;SDS011;48597;49.030;1.822;2023-06-22T12:56:21;2.53;;;1.85;;
62543;SDS011;48597;49.030;1.822;2023-06-22T12:58:47;3.80;;;1.90;;
62543;SDS011;48597;49.030;1.822;2023-06-22T13:01:12;2.05;;;1.67;;
62543;SDS011;48597;49.030;1.822;2023-06-22T13:03:38;3.08;;;1.90;;
62543;SDS011;48597;49.030;1.822;2023-06-22T13:06:03;2.28;;;1.70;;
62543;SDS011;48597;49.030;1.822;2023-06-22T13:08:29;2.88;;;1.85;;
62543;SDS011;48597;49.030;1.822;2023-06-22T13:10:55;2.35;;;1.42;;
62543;SDS011;48597;49.030;1.822;2023-06-22T13:13:23;2.60;;;1.80;;
62543;SDS011;48597;49.030;1.822;2023-06-22T13:15:52;2.83;;;1.70;;
62543;SDS011;48597;49.030;1.822;2023-06-22T13:18:19;2.88;;;1.60;;
62543;SDS011;48597;49.030;1.822;2023-06-22T13:20:44;2.38;;;1.85;;
62543;SDS011;48597;49.030;1.822;2023-06-22T13:23:10;2.55;;;1.75;;
62543;SDS011;48597;49.030;1.822;2023-06-22T13:25:36;2.20;;;1.73;;
62543;SDS011;48597;49.030;1.822;2023-06-22T13:28:01;2.17;;;1.70;;
62543;SDS011;48597;49.030;1.822;2023-06-22T13:30:27;2.25;;;1.70;;
62543;SDS011;48597;49.030;1.822;2023-06-22T13:32:52;2.60;;;1.60;;
62543;SDS011;48597;49.030;1.822;2023-06-22T13:35:18;3.83;;;1.50;;
62543;SDS011;48597;49.030;1.822;2023-06-22T13:37:43;2.05;;;1.58;;
62543;SDS011;48597;49.030;1.822;2023-06-22T13:40:09;2.72;;;1.55;;
62543;SDS011;48597;49.030;1.822;2023-06-22T13:42:35;2.03;;;1.50;;
62543;SDS011;48597;49.030;1.822;2023-06-22T13:45:00;2.22;;;1.60;;
62543;SDS011;48597;49.030;1.822;2023-06-22T13:47:26;1.70;;;1.50;;
62543;SDS011;48597;49.030;1.822;2023-06-22T13:49:52;2.97;;;1.50;;
62543;SDS011;48597;49.030;1.822;2023-06-22T13:52:17;5.90;;;1.77;;
62543;SDS011;48597;49.030;1.822;2023-06-22T13:54:42;5.00;;;1.58;;
62543;SDS011;48597;49.030;1.822;2023-06-22T13:57:08;2.80;;;1.50;;
62543;SDS011;48597;49.030;1.822;2023-06-22T13:59:33;4.25;;;1.80;;
62543;SDS011;48597;49.030;1.822;2023-06-22T14:01:59;2.05;;;1.52;;
62543;SDS011;48597;49.030;1.822;2023-06-22T14:04:25;2.60;;;1.67;;
62543;SDS011;48597;49.030;1.822;2023-06-22T14:06:50;2.13;;;1.33;;
62543;SDS011;48597;49.030;1.822;2023-06-22T14:09:16;2.42;;;1.70;;
62543;SDS011;48597;49.030;1.822;2023-06-22T14:11:41;2.97;;;1.50;;
62543;SDS011;48597;49.030;1.822;2023-06-22T14:14:07;1.77;;;1.50;;
62543;SDS011;48597;49.030;1.822;2023-06-22T14:16:32;2.30;;;1.50;;
62543;SDS011;48597;49.030;1.822;2023-06-22T14:18:57;2.47;;;1.40;;
62543;SDS011;48597;49.030;1.822;2023-06-22T14:21:23;2.22;;;1.40;;
62543;SDS011;48597;49.030;1.822;2023-06-22T14:23:48;1.65;;;1.40;;
62543;SDS011;48597;49.030;1.822;2023-06-22T14:26:14;2.05;;;1.58;;
62543;SDS011;48597;49.030;1.822;2023-06-22T14:28:42;3.47;;;1.40;;
62543;SDS011;48597;49.030;1.822;2023-06-22T14:31:12;2.63;;;1.58;;
62543;SDS011;48597;49.030;1.822;2023-06-22T14:33:40;2.97;;;1.50;;
62543;SDS011;48597;49.030;1.822;2023-06-22T14:36:06;3.45;;;1.58;;
62543;SDS011;48597;49.030;1.822;2023-06-22T14:38:31;2.15;;;1.42;;
62543;SDS011;48597;49.030;1.822;2023-06-22T14:40:56;3.03;;;1.60;;
62543;SDS011;48597;49.030;1.822;2023-06-22T14:43:22;3.08;;;1.60;;
62543;SDS011;48597;49.030;1.822;2023-06-22T14:45:47;3.45;;;1.80;;
62543;SDS011;48597;49.030;1.822;2023-06-22T14:48:12;2.53;;;1.60;;
62543;SDS011;48597;49.030;1.822;2023-06-22T14:50:38;1.55;;;1.40;;
62543;SDS011;48597;49.030;1.822;2023-06-22T14:53:03;4.35;;;1.60;;
62543;SDS011;48597;49.030;1.822;2023-06-22T14:55:28;3.00;;;1.50;;
62543;SDS011;48597;49.030;1.822;2023-06-22T14:57:54;3.25;;;1.58;;